Weather observations for the past three days for
Stevens Field, Pagosa Springs
Imperial (Metric)
Date Time (mdt) Wind (mph) Vis. (mi.) Weather Sky Cond. Temperature (ºF) Relative Humidity Wind Chill (°F) Heat Index (°F) Pressure Precipitation (in)
Air Dwpt 6 hour altimeter (in) sea level (mb) 1 hr 3 hr 6 hr
Max. Min.
07 14:55 S 7 10.00 Fair CLR 60.8 12.2 15% 30.14 0.0
07 14:35 S 9 G 18 10.00 Fair CLR 60.8 14 16% 30.15 0.0
07 14:15 Vrbl 6 10.00 Thunderstorm in Vicinity CLR 60.8 12.2 15% 30.17 0.0
07 13:55 S 12 G 16 10.00 Fair CLR 59 14 17% 30.17 0.0
07 13:35 Vrbl 3 10.00 Fair CLR 57.2 12.2 17% 30.18 0.0
07 13:15 Vrbl 7 10.00 Fair CLR 60.8 14 16% 30.19 0.0
07 12:55 Vrbl 3 10.00 Fair CLR 57.2 10.4 15% 30.2 0.0
07 12:35 Vrbl 3 10.00 Fair CLR 55.4 12.2 18% 30.21 0.0
07 12:15 S 6 10.00 Fair CLR 53.6 12.2 19% 30.22 0.0
07 11:55 Vrbl 6 10.00 Fair CLR 53.6 12.2 53.2 21.4 19% 30.22 0.0
07 11:35 S 9 10.00 Fair CLR 53.6 12.2 19% 30.22 0.0
07 11:15 SW 5 10.00 Fair CLR 50 12.2 22% 49 30.23 0.0
07 10:55 Vrbl 3 10.00 Fair CLR 48.2 15.8 27% 30.24 0.0
07 10:35 Vrbl 3 10.00 Fair CLR 48.2 19.4 32% 30.25 0.0
07 10:15 Vrbl 3 10.00 Fair CLR 46.4 19.4 34% 30.26 0.0
07 09:55 Vrbl 3 10.00 Fair CLR 44.6 19.4 37% 30.26 0.0
07 09:35 Vrbl 2 10.00 Fair CLR 44.6 19.4 37% 30.27 0.0
07 09:15 Vrbl 5 10.00 Fair CLR 44.6 17.6 34% 43 30.27 0.0
07 08:55 Vrbl 1 10.00 Fair CLR 41 15.8 36% 30.27 0.0
07 08:35 SW 2 10.00 Fair CLR 37.4 14 38% 30.28 0.0
07 08:15 Calm 10.00 Fair CLR 37.4 14 38% 30.28 0.0
07 07:55 E 1 10.00 Fair CLR 35.6 15.8 44% 30.28 0.0
07 07:35 NE 3 10.00 Fair CLR 32 15.8 51% 30.28 0.0
07 07:15 NE 5 10.00 Fair CLR 30.2 17.6 59% 26 30.28 0.0
07 06:55 Calm 10.00 Fair CLR 26.6 17.6 69% 30.27 0.0
07 06:35 NW 2 10.00 Fair CLR 24.8 15.8 69% 30.27 0.0
07 06:15 NW 3 10.00 Fair CLR 23 15.8 74% 30.27 0.0
07 05:55 N 1 10.00 Fair CLR 23 15.8 34.9 20.7 74% 30.26 0.0
07 05:35 NE 2 10.00 Fair CLR 21.2 15.8 80% 30.25 0.0
07 05:15 NW 3 10.00 Fair CLR 21.2 15.8 80% 30.25 0.0
07 04:55 NE 1 10.00 Fair CLR 24.8 17.6 74% 30.25 0.0
07 04:35 NW 2 10.00 Fair CLR 23 15.8 74% 30.25 0.0
07 04:15 W 2 10.00 Fair CLR 24.8 14 63% 30.25 0.0
07 03:55 NE 2 10.00 Fair CLR 24.8 14 63% 30.24 0.0
07 03:35 Calm 10.00 Fair CLR 24.8 15.8 69% 30.24 0.0
07 03:15 Calm 10.00 Fair CLR 26.6 15.8 64% 30.23 0.0
07 02:55 NW 3 10.00 Fair CLR 24.8 15.8 69% 30.24 0.0
07 02:35 E 3 10.00 Fair CLR 26.6 15.8 64% 30.24 0.0
07 02:15 N 2 10.00 Fair CLR 26.6 17.6 69% 30.23 0.0
07 01:55 NW 2 10.00 Fair CLR 24.8 17.6 74% 30.24 0.0
07 01:35 NW 2 10.00 Fair CLR 26.6 17.6 69% 30.25 0.0
07 01:15 NW 2 10.00 Fair CLR 26.6 17.6 69% 30.24 0.0
07 00:55 NW 1 10.00 Fair CLR 28.4 19.4 69% 30.24 0.0
07 00:35 Vrbl 1 10.00 Fair CLR 30.2 19.4 64% 30.23 0.0
07 00:15 Vrbl 3 10.00 Fair CLR 33.8 17.6 51% 30.23 0.0
06 23:55 N 8 10.00 Fair CLR 32 15.8 50.5 27.9 51% 25 30.22 0.0
06 23:35 N 5 10.00 Fair CLR 30.2 17.6 59% 26 30.21 0.0
06 23:15 NW 5 10.00 Fair CLR 32 15.8 51% 28 30.21 0.0
06 22:55 N 5 10.00 Fair CLR 28.4 19.4 69% 24 30.21 0.0
06 22:35 N 3 10.00 Fair CLR 32 17.6 55% 30.2 0.0
06 22:15 NE 2 10.00 Fair CLR 37.4 14 38% 30.2 0.0
06 21:55 N 5 10.00 Fair CLR 39.2 14 36% 36 30.19 0.0
06 21:35 N 5 10.00 Fair CLR 39.2 14 36% 36 30.18 0.0
06 21:15 N 6 10.00 Fair CLR 37.4 15.8 41% 33 30.17 0.0
06 20:35 N 6 10.00 Fair CLR 41 15.8 36% 38 30.14 0.0
06 20:15 N 7 10.00 Fair CLR 41 17.6 39% 37 30.13 0.0
06 19:55 N 6 10.00 Fair CLR 44.6 17.6 34% 42 30.12 0.0
06 19:35 NE 5 10.00 Fair CLR 46.4 23 40% 45 30.1 0.0
06 19:15 NE 5 10.00 Fair CLR 48.2 26.6 43% 47 30.09 0.0
06 18:55 NE 5 10.00 Fair CLR 50 24.8 37% 49 30.08 0.0
06 18:35 NE 6 10.00 Fair CLR 50 26.6 40% 48 30.07 0.0
06 18:15 Vrbl 5 10.00 Fair CLR 50 26.6 40% 49 30.06 0.0
06 17:55 NE 5 10.00 Fair CLR 48.2 28.4 52.3 37 46% 47 30.06 0.0
06 17:35 NE 5 10.00 A Few Clouds FEW100 48.2 26.6 43% 47 30.05 0.0
06 17:15 NE 7 10.00 Partly Cloudy SCT100 51.8 28.4 41% 30.04 0.0
06 16:55 Vrbl 2 10.00 Fair CLR 48.2 24.8 40% 30.03 0.0
06 16:35 Vrbl 5 10.00 A Few Clouds FEW090 46.4 28.4 50% 45 30.03 0.0
06 15:55 Vrbl 3 10.00 Mostly Cloudy SCT039 SCT060 BKN090 42.8 33.8 71% 30.03 0.0
06 15:35 NE 5 10.00 Light Rain SCT025 SCT032 SCT090 42.8 33.8 71% 41 30.02 0.0
06 15:15 NE 6 10.00 A Few Clouds FEW060 FEW090 44.6 33.8 66% 42 30.02 0.0
06 14:55 NE 7 10.00 Light Rain FEW050 BKN070 BKN080 42.8 33.8 71% 39 30.02 0.0
06 14:35 E 6 10.00 Mostly Cloudy SCT075 BKN090 44.6 33.8 66% 42 30.02 0.0
06 14:15 Vrbl 6 10.00 Mostly Cloudy BKN100 42.8 35.6 76% 40 30.02 0.0
06 13:55 E 8 10.00 Mostly Cloudy SCT070 SCT080 BKN100 42.8 35.6 76% 39 30.01 0.0
06 13:35 NE 9 G 16 10.00 Mostly Cloudy SCT023 SCT070 BKN100 41 37.4 87% 36 30.01 0.0
06 13:15 N 9 10.00 Light Rain SCT017 BKN023 BKN029 37.4 35.6 93% 31 30.01 0.0
06 12:55 N 10 10.00 Light Drizzle SCT017 BKN022 BKN050 39.2 37.4 93% 33 30.01 0.0 0.02
06 12:35 NW 12 G 17 2.50 Light Rain Fog/Mist SCT016 SCT024 37.4 35.6 93% 30 30.01 0.0
06 12:15 N 7 3.00 Light Rain Haze FEW015 BKN028 BKN039 39.2 35.6 87% 35 30 0.0
06 11:55 Vrbl 1 10.00 Overcast BKN028 OVC034 42.8 32 43.2 36.5 66% 29.99 0.0
06 11:35 S 8 10.00 Overcast OVC024 41 33.8 76% 36 30.01 0.0
06 11:15 SE 10 10.00 Overcast FEW019 BKN024 OVC033 41 33.8 76% 35 30.02 0.0
06 10:55 S 10 10.00 Overcast SCT017 BKN026 OVC030 41 33.8 76% 35 30.01 0.0
06 10:35 S 10 10.00 Overcast SCT017 BKN026 OVC032 41 33.8 76% 35 30.01 0.0
06 10:15 S 10 10.00 Overcast SCT017 BKN021 OVC026 39.2 32 75% 33 30.01 0.0
06 09:55 Vrbl 7 10.00 Overcast SCT015 BKN022 OVC030 39.2 33.8 81% 35 30.01 0.0
06 09:35 S 8 10.00 Overcast BKN016 BKN020 OVC026 39.2 33.8 81% 34 30.01 0.0
06 09:15 S 7 10.00 Overcast BKN012 OVC017 39.2 33.8 81% 35 30.01 0.0
06 08:55 SE 9 10.00 Overcast BKN010 OVC015 37.4 33.8 87% 31 30 0.0
06 08:35 SE 7 10.00 Overcast OVC012 37.4 33.8 87% 33 30.01 0.0
06 08:15 S 9 10.00 Overcast BKN010 OVC014 37.4 33.8 87% 31 30.01 0.0
06 07:55 S 8 10.00 Overcast BKN013 BKN023 OVC029 37.4 33.8 87% 32 30.01 0.0
06 07:35 SE 5 10.00 Overcast BKN013 BKN020 OVC034 37.4 33.8 87% 34 30.01 0.0
06 07:15 SE 5 10.00 Overcast SCT012 BKN019 OVC031 37.4 33.8 87% 34 30 0.0
06 06:55 SW 5 10.00 Overcast FEW016 BKN029 OVC050 37.4 33.8 87% 34 30 0.0
06 06:15 SW 8 10.00 Overcast BKN010 OVC055 37.4 33.8 87% 32 29.98 0.0
06 05:55 S 6 10.00 Overcast BKN010 OVC014 37.4 35.6 41.7 36.7 93% 33 29.98 0.0
06 05:35 S 8 10.00 Overcast BKN010 OVC015 37.4 35.6 93% 32 29.97 0.0
06 04:55 S 5 10.00 Overcast BKN008 OVC013 37.4 35.6 93% 34 29.97 0.0
06 04:35 SW 7 10.00 Overcast OVC010 37.4 35.6 93% 33 29.96 0.0
06 04:15 S 7 10.00 Overcast BKN008 OVC013 37.4 35.6 93% 33 29.96 0.0
06 03:55 SW 7 10.00 Overcast BKN008 OVC012 37.4 35.6 93% 33 29.96 0.0
06 03:35 SW 5 10.00 Overcast OVC008 37.4 35.6 93% 34 29.96 0.0
06 03:15 SW 6 10.00 Overcast OVC008 37.4 35.6 93% 33 29.96 0.0
06 02:55 S 7 10.00 Light Rain BKN008 OVC015 37.4 35.6 93% 33 29.96 0.0
06 02:35 S 6 10.00 Light Rain OVC014 37.4 35.6 93% 33 29.96 0.0
06 02:15 S 8 10.00 Overcast BKN009 OVC014 37.4 35.6 93% 32 29.97 0.0
06 01:55 S 5 10.00 Overcast OVC011 37.4 35.6 93% 34 29.98 0.0 0.02
06 01:35 SW 6 10.00 Overcast BKN011 OVC018 37.4 35.6 93% 33 29.98 0.0
06 01:15 SW 7 3.00 Light Rain Fog/Mist SCT007 BKN012 OVC033 37.4 35.6 93% 33 29.98 0.0
06 00:55 W 2 10.00 Light Drizzle FEW008 BKN014 OVC031 37.4 35.6 93% 29.98 0.0 0.03
06 00:35 SW 3 10.00 Overcast BKN014 BKN025 OVC045 37.4 35.6 93% 29.98 0.0
06 00:15 W 10 1.25 Light Rain Fog/Mist SCT003 BKN010 OVC018 39.2 35.6 87% 33 29.98 0.0
05 23:55 S 8 10.00 Overcast OVC024 41 33.8 53.8 40.6 76% 36 29.97 0.0
05 23:35 S 6 10.00 Overcast OVC022 41 33.8 76% 38 29.97 0.0
05 23:15 S 7 10.00 Overcast BKN024 BKN050 OVC070 41 33.8 76% 37 29.98 0.0
05 22:55 S 6 10.00 Overcast BKN022 BKN055 OVC070 41 33.8 76% 38 29.97 0.0
05 22:35 SE 7 10.00 Overcast BKN024 BKN050 OVC070 41 35.6 81% 37 29.97 0.0
05 22:15 S 7 10.00 Overcast SCT024 BKN050 OVC080 41 35.6 81% 37 29.97 0.0
05 21:55 SW 8 8.00 Light Rain Haze BKN021 OVC027 41 35.6 81% 36 29.96 0.0
05 21:35 S 10 10.00 Overcast OVC027 42.8 33.8 71% 38 29.96 0.0
05 21:15 S 12 G 17 10.00 Overcast OVC027 42.8 32 66% 37 29.95 0.0
05 20:35 S 13 10.00 Overcast BKN034 OVC080 44.6 33.8 66% 39 29.93 0.0
05 20:15 S 17 10.00 Overcast FEW031 OVC036 44.6 33.8 66% 38 29.92 0.0
05 19:55 SW 10 G 21 10.00 Thunderstorm in Vicinity Rain SCT029 BKN038 BKN048 44.6 33.8 66% 40 29.9 0.0
05 19:35 SW 14 10.00 Light Rain SCT028 SCT043 BKN050 48.2 32 54% 43 29.88 0.0
05 19:15 S 18 G 23 10.00 Thunderstorm in Vicinity SCT038 BKN050 BKN065 50 30.2 47% 44 29.87 0.0
05 18:55 S 17 10.00 Mostly Cloudy SCT060 BKN075 BKN090 51.8 26.6 38% 29.86 0.0
05 18:35 S 16 10.00 Mostly Cloudy BKN075 BKN090 51.8 26.6 38% 29.85 0.0
05 18:15 S 16 G 22 10.00 Thunderstorm in Vicinity SCT065 SCT120 53.6 26.6 35% 29.85 0.0
05 17:55 SW 15 G 21 10.00 Fair CLR 53.6 24.8 57.9 50.5 33% 29.84 0.0
05 17:35 SW 16 G 23 10.00 Fair CLR 55.4 24.8 31% 29.84 0.0
05 17:15 S 23 G 29 10.00 Fair and Breezy CLR 55.4 23 28% 29.83 0.0
05 16:55 SW 18 G 26 10.00 A Few Clouds FEW085 55.4 23 28% 29.83 0.0
05 16:35 SW 16 G 28 10.00 A Few Clouds FEW085 57.2 19.4 23% 29.83 0.0
05 16:15 SW 18 G 23 10.00 A Few Clouds FEW080 57.2 19.4 23% 29.84 0.0
05 15:55 W 16 G 23 10.00 Partly Cloudy FEW080 SCT110 57.2 19.4 23% 29.85 0.0
05 15:35 SW 16 G 25 10.00 Mostly Cloudy FEW080 BKN100 55.4 19.4 24% 29.86 0.0
05 15:15 SW 14 G 23 10.00 Mostly Cloudy FEW070 BKN090 55.4 21.2 26% 29.87 0.0
05 14:55 SW 14 G 26 10.00 Partly Cloudy SCT070 SCT080 55.4 23 28% 29.88 0.0
05 14:35 SW 17 G 28 10.00 Partly Cloudy SCT070 SCT080 55.4 23 28% 29.89 0.0
05 14:15 SW 16 G 23 10.00 Mostly Cloudy BKN080 55.4 21.2 26% 29.9 0.0
05 13:55 SW 17 G 23 10.00 Partly Cloudy SCT080 SCT090 55.4 21.2 26% 29.89 0.0
05 13:35 W 14 G 21 10.00 A Few Clouds FEW110 55.4 23 28% 29.9 0.0
05 13:15 SW 12 10.00 A Few Clouds FEW100 FEW120 53.6 21.2 28% 29.91 0.0
05 12:55 SW 9 G 21 10.00 Mostly Cloudy BKN090 55.4 21.2 26% 29.91 0.0
05 12:35 SW 3 10.00 Mostly Cloudy BKN100 51.8 19.4 28% 29.92 0.0
05 12:15 W 8 G 16 10.00 Partly Cloudy SCT100 51.8 19.4 28% 29.93 0.0
05 11:55 W 9 10.00 A Few Clouds FEW100 51.8 21.2 51.6 36.3 30% 29.93 0.0
05 11:35 W 12 10.00 Partly Cloudy SCT100 50 23 35% 46 29.93 0.0
05 11:15 Vrbl 2 10.00 Partly Cloudy SCT100 48.2 21.2 34% 29.94 0.0
05 10:55 SW 6 10.00 Mostly Cloudy BKN110 48.2 23 37% 46 29.94 0.0
05 10:35 Vrbl 7 10.00 A Few Clouds FEW110 48.2 23 37% 46 29.94 0.0
05 10:15 SE 6 10.00 Partly Cloudy SCT100 48.2 21.2 34% 46 29.95 0.0
05 09:56 Vrbl 3 10.00 A Few Clouds FEW110 48.2 21.2 34% 29.95 0.0
05 09:35 Vrbl 5 10.00 A Few Clouds FEW110 46.4 23 40% 45 29.95 0.0
05 09:15 E 5 10.00 Mostly Cloudy BKN110 44.6 23 43% 43 29.96 0.0
05 08:55 NE 3 10.00 Mostly Cloudy BKN110 44.6 23 43% 29.96 0.0
05 08:35 NE 2 10.00 Partly Cloudy SCT110 44.6 23 43% 29.97 0.0
05 08:15 Vrbl 2 10.00 Fair CLR 44.6 21.2 39% 29.98 0.0
05 07:55 NE 3 10.00 Partly Cloudy SCT075 42.8 21.2 42% 29.98 0.0
05 07:35 NE 2 10.00 Mostly Cloudy BKN075 41 23 49% 29.98 0.0
05 07:15 NE 3 10.00 Overcast OVC075 41 23 49% 29.98 0.0
05 06:55 NE 3 10.00 Overcast OVC075 39.2 23 52% 29.98 0.0
05 06:35 NE 2 10.00 Overcast OVC075 39.2 21.2 48% 29.98 0.0
05 06:15 Vrbl 1 10.00 Overcast BKN075 OVC120 37.4 23 56% 29.98 0.0
05 05:55 Calm 10.00 Overcast BKN075 OVC120 37.4 23 48 37.4 56% 29.98 0.0
05 05:35 NE 3 10.00 Overcast OVC075 39.2 21.2 48% 29.98 0.0
05 05:15 NE 3 10.00 Overcast OVC075 37.4 23 56% 29.98 0.0
05 04:55 Vrbl 1 10.00 Overcast OVC075 39.2 21.2 48% 29.98 0.0
05 04:35 Calm 10.00 Partly Cloudy SCT075 41 19.4 42% 29.98 0.0
05 04:15 Calm 10.00 Fair CLR 39.2 21.2 48% 29.97 0.0
05 03:56 Vrbl 3 10.00 Fair CLR 41 21.2 45% 29.96 0.0
05 03:35 NE 3 10.00 Fair CLR 42.8 19.4 39% 29.97 0.0
05 03:15 Vrbl 2 10.00 Fair CLR 41 21.2 45% 29.97 0.0
05 02:55 Vrbl 3 10.00 Fair CLR 46.4 15.8 29% 29.97 0.0
05 02:35 SW 8 10.00 Mostly Cloudy BKN085 46.4 17.6 32% 43 29.97 0.0
05 02:15 SW 12 10.00 Overcast OVC085 46.4 19.4 34% 42 29.98 0.0
05 01:55 SW 8 10.00 Mostly Cloudy BKN085 48.2 19.4 32% 45 29.98 0.0
05 01:35 SW 8 10.00 Fair CLR 48.2 21.2 34% 45 29.98 0.0
05 01:15 SW 6 10.00 Fair CLR 42.8 26.6 53% 40 29.98 0.0
05 00:55 SW 5 10.00 Fair CLR 41 28.4 61% 38 29.98 0.0
05 00:35 NW 2 10.00 Fair CLR 41 24.8 53% 29.98 0.0
05 00:15 Calm 10.00 Fair CLR 42.8 23 46% 29.97 0.0
04 23:55 NW 2 10.00 Fair CLR 41 24.8 58.8 40.8 53% 29.97 0.0
04 23:35 NW 2 10.00 Fair CLR 41 23 49% 29.97 0.0
04 23:15 Calm 10.00 Fair CLR 42.8 23 46% 29.98 0.0
04 22:55 NW 2 10.00 Fair CLR 42.8 23 46% 29.98 0.0
04 22:35 N 2 10.00 Fair CLR 44.6 24.8 46% 29.98 0.0
04 22:15 NW 1 10.00 Partly Cloudy SCT080 44.6 26.6 49% 29.98 0.0
04 21:55 SW 1 10.00 Mostly Cloudy BKN080 48.2 23 37% 29.99 0.0
04 21:35 W 2 10.00 A Few Clouds FEW080 46.4 24.8 43% 29.98 0.0
04 21:15 Vrbl 1 10.00 Fair CLR 48.2 24.8 40% 29.98 0.0
04 20:55 W 1 10.00 A Few Clouds FEW080 48.2 23 37% 29.98 0.0
04 20:35 Vrbl 1 10.00 Partly Cloudy SCT090 48.2 23 37% 29.97 0.0
04 20:15 W 2 10.00 Mostly Cloudy BKN090 51.8 21.2 30% 29.97 0.0
04 19:55 W 3 10.00 Overcast OVC090 53.6 17.6 24% 29.97 0.0
04 19:35 W 6 10.00 Partly Cloudy SCT090 55.4 15.8 21% 29.97 0.0
04 19:15 W 3 10.00 Partly Cloudy SCT090 55.4 21.2 26% 29.96 0.0
04 18:55 SW 7 10.00 A Few Clouds FEW090 57.2 19.4 23% 29.96 0.0
04 18:35 W 10 G 17 10.00 Fair CLR 57.2 19.4 23% 29.97 0.0
04 18:15 SW 14 G 21 10.00 Fair CLR 57.2 17.6 21% 29.98 0.0
04 17:55 SW 14 G 21 10.00 Fair CLR 59 21.2 60.6 54 23% 29.98 0.0
04 17:35 W 10 10.00 Fair CLR 59 21.2 23% 29.98 0.0
04 17:15 SW 15 G 21 10.00 A Few Clouds FEW080 59 21.2 23% 29.98 0.0
04 16:55 SW 14 G 18 10.00 Fair CLR 59 23 25% 29.97 0.0
04 16:35 W 12 G 17 10.00 Fair CLR 59 23 25% 29.98 0.0
04 16:15 SW 16 G 22 10.00 A Few Clouds FEW080 59 23 25% 29.98 0.0
04 15:55 S 16 G 26 10.00 Partly Cloudy SCT070 SCT080 59 24.8 27% 29.98 0.0
04 15:35 SW 16 G 22 10.00 Partly Cloudy SCT070 59 26.6 29% 29.99 0.0
Date Time (mdt) Wind (mph) Vis. (mi.) Weather Sky Cond. Air Dwpt Max. Min. Relative Humidity Wind Chill (°F) Heat Index (°F) altimeter (in) sea level (mb) 1 hr 3 hr 6 hr
6 hour
Temperature (ºF) Pressure Precipitation (in)